Time;durP1;ratioP1;P1;durP2;ratioP2;P2;SDS_P1;SDS_P2;PMS_P1;PMS_P2;Temp;Humidity;BMP_temperature;BMP_pressure;BME280_temperature;BME280_humidity;BME280_pressure;Samples;Min_cycle;Max_cycle;Signal;HPM_P1;HPM_P2
2022/05/19 00:02:18;;;;;;;3.45;2.98;;;;;;;10.21;64.03;101121.91;2902105;81;21051;-90
2022/05/19 00:06:19;;;;;;;9.10;5.65;;;;;;;10.22;63.83;101123.62;2897822;81;21026;-89
2022/05/19 00:10:20;;;;;;;10.25;7.40;;;;;;;10.30;63.46;101127.09;2912950;81;21067;-88
2022/05/19 00:14:22;;;;;;;11.12;6.47;;;;;;;10.34;63.33;101119.27;2925784;80;21086;-89
2022/05/19 00:18:23;;;;;;;9.75;5.40;;;;;;;10.36;63.24;101116.03;2927203;80;21104;-89
2022/05/19 00:22:25;;;;;;;10.05;6.28;;;;;;;10.36;63.33;101115.20;2915850;80;21041;-89
2022/05/19 00:26:26;;;;;;;6.22;5.30;;;;;;;10.33;63.51;101104.27;2908187;81;21023;-88
2022/05/19 00:30:27;;;;;;;5.30;3.87;;;;;;;10.33;64.02;101098.95;2904544;81;21091;-89
2022/05/19 00:34:28;;;;;;;9.20;3.25;;;;;;;10.24;64.31;101099.10;2908281;81;20975;-89
2022/05/19 00:38:29;;;;;;;6.80;4.35;;;;;;;10.14;64.90;101102.02;2798449;81;21054;-89
2022/05/19 00:42:46;;;;;;;6.90;3.92;;;;;;;10.10;65.41;101101.83;2911591;80;20987;-89
2022/05/19 00:46:50;;;;;;;;;;;;;;;10.06;65.57;101103.86;2905107;80;21078;-89
2022/05/19 00:50:59;;;;;;;9.48;4.60;;;;;;;10.00;65.64;101098.93;2909929;81;20115;-88
2022/05/19 00:55:15;;;;;;;7.47;4.70;;;;;;;9.96;65.65;101096.11;2904318;80;21084;-89
2022/05/19 00:59:31;;;;;;;10.03;4.10;;;;;;;9.92;66.00;101096.78;2925572;80;20980;-90
2022/05/19 01:03:41;;;;;;;17.77;3.95;;;;;;;9.93;65.72;101092.33;2930585;80;21049;-88
2022/05/19 01:08:09;;;;;;;5.35;4.22;;;;;;;9.93;65.70;101092.33;2897967;81;21561;-89
2022/05/19 01:12:11;;;;;;;4.97;4.47;;;;;;;9.87;66.14;101093.58;2821705;82;21061;-89
2022/05/19 01:16:13;;;;;;;7.28;4.17;;;;;;;9.83;66.66;101100.06;2829523;83;21105;-90
2022/05/19 01:20:20;;;;;;;6.05;3.92;;;;;;;9.79;66.40;101092.75;2905700;81;21562;-88
2022/05/19 01:24:32;;;;;;;5.17;4.03;;;;;;;9.76;66.22;101090.30;2917565;79;21459;-89
2022/05/19 01:28:34;;;;;;;4.30;3.27;;;;;;;9.78;66.46;101092.38;2848217;82;21063;-89
2022/05/19 01:32:35;;;;;;;11.63;4.55;;;;;;;9.78;66.62;101081.75;2899491;81;21009;-88
2022/05/19 01:36:37;;;;;;;5.92;3.95;;;;;;;9.72;66.86;101086.98;2910801;80;21036;-88
2022/05/19 01:41:08;;;;;;;7.15;4.62;;;;;;;9.70;67.04;101090.22;2915268;80;21000;-89
2022/05/19 01:45:17;;;;;;;7.15;3.60;;;;;;;9.76;66.58;101088.98;2845976;81;21099;-88
2022/05/19 01:49:42;;;;;;;6.87;3.42;;;;;;;9.76;67.17;101082.33;2986846;77;21056;-88
2022/05/19 01:54:24;;;;;;;8.38;4.50;;;;;;;9.78;66.60;101092.38;3010284;78;21570;-89
2022/05/19 01:58:34;;;;;;;5.92;3.83;;;;;;;9.83;66.25;101086.77;2997406;78;21434;-88
2022/05/19 02:02:55;;;;;;;8.00;3.87;;;;;;;9.89;66.04;101083.70;2856432;82;21027;-89
2022/05/19 02:07:03;;;;;;;6.37;3.50;;;;;;;9.92;66.03;101090.63;2861027;81;21025;-89
2022/05/19 02:11:10;;;;;;;8.40;4.83;;;;;;;9.92;65.79;101082.16;2879461;81;21605;-89
2022/05/19 02:15:16;;;;;;;5.45;4.12;;;;;;;9.91;65.96;101083.61;2854709;81;21033;-89
2022/05/19 02:19:22;;;;;;;4.72;3.10;;;;;;;9.83;66.06;101075.68;2856480;81;21022;-90
2022/05/19 02:23:25;;;;;;;6.55;4.20;;;;;;;9.70;66.55;101075.61;2856798;81;20976;-89
2022/05/19 02:27:34;;;;;;;7.80;4.72;;;;;;;9.58;66.84;101073.78;2864324;81;21054;-90
2022/05/19 02:31:35;;;;;;;6.15;3.50;;;;;;;9.46;67.66;101063.48;2854008;81;21078;-90
2022/05/19 02:35:36;;;;;;;6.65;4.47;;;;;;;9.37;67.79;101061.41;2873042;81;21079;-87
2022/05/19 02:39:38;;;;;;;6.20;4.22;;;;;;;9.33;68.02;101069.20;2893492;78;21049;-88
2022/05/19 02:43:39;;;;;;;6.70;3.65;;;;;;;9.29;67.76;101061.44;3019256;77;20999;-88
2022/05/19 02:47:41;;;;;;;7.22;4.45;;;;;;;9.26;68.07;101061.64;2997360;78;21019;-88
2022/05/19 02:51:42;;;;;;;9.90;4.70;;;;;;;9.18;68.35;101058.60;3015189;77;21038;-87
2022/05/19 02:55:44;;;;;;;7.60;4.15;;;;;;;9.14;68.38;101060.63;3010119;78;21034;-88
2022/05/19 02:59:45;;;;;;;5.87;4.00;;;;;;;9.09;68.74;101063.18;2990854;77;21022;-89
2022/05/19 03:03:48;;;;;;;5.15;3.35;;;;;;;8.97;68.93;101068.30;3017266;78;20999;-87
2022/05/19 03:07:49;;;;;;;7.67;3.85;;;;;;;8.95;69.45;101064.05;3015581;77;21034;-87
2022/05/19 03:11:51;;;;;;;6.17;3.92;;;;;;;8.85;70.05;101062.45;3008712;77;21077;-87
2022/05/19 03:15:52;;;;;;;5.87;4.03;;;;;;;8.81;70.31;101056.93;3015935;76;21017;-89
2022/05/19 03:19:55;;;;;;;6.08;3.87;;;;;;;8.77;70.61;101054.09;3012416;77;20956;-87
2022/05/19 03:23:57;;;;;;;3.90;3.10;;;;;;;8.77;70.46;101050.12;2990195;78;20971;-87
2022/05/19 03:27:58;;;;;;;8.10;4.70;;;;;;;8.85;70.15;101053.16;2985734;77;21630;-88
2022/05/19 03:32:00;;;;;;;6.92;3.95;;;;;;;8.91;70.44;101047.47;2957450;78;21605;-87
2022/05/19 03:36:04;;;;;;;5.87;2.92;;;;;;;8.92;70.70;101046.97;3019684;78;22134;-87
2022/05/19 03:40:07;;;;;;;5.15;3.60;;;;;;;8.98;70.58;101045.28;3012122;77;21065;-87
2022/05/19 03:44:09;;;;;;;5.15;2.77;;;;;;;8.99;70.59;101037.20;3012019;77;21052;-88
2022/05/19 03:48:10;;;;;;;5.08;3.35;;;;;;;8.95;70.96;101045.48;3004251;78;21065;-87
2022/05/19 03:52:11;;;;;;;7.70;3.30;;;;;;;8.94;71.10;101036.66;3015019;77;20987;-88
2022/05/19 03:56:12;;;;;;;8.83;3.72;;;;;;;8.97;71.14;101039.59;3014678;78;21138;-88
2022/05/19 04:00:15;;;;;;;3.75;2.75;;;;;;;9.15;70.36;101040.22;3004449;77;20970;-87
2022/05/19 04:04:16;;;;;;;5.37;3.35;;;;;;;9.34;70.18;101050.52;2995864;78;20971;-87
2022/05/19 04:08:17;;;;;;;5.28;3.35;;;;;;;9.50;70.04;101045.06;3014660;77;21073;-87
2022/05/19 04:12:20;;;;;;;9.70;3.83;;;;;;;9.69;69.39;101045.18;2988824;78;21164;-88
2022/05/19 04:16:22;;;;;;;6.78;3.62;;;;;;;10.18;68.98;101050.80;2996087;77;21022;-88
2022/05/19 04:20:23;;;;;;;7.35;3.52;;;;;;;11.25;68.33;101049.58;3007666;77;21042;-88
2022/05/19 04:24:24;;;;;;;6.17;2.90;;;;;;;12.69;68.35;101044.60;3007021;78;21013;-87
2022/05/19 04:28:26;;;;;;;6.33;3.90;;;;;;;14.22;65.80;101057.69;2992323;77;21010;-88
2022/05/19 04:32:27;;;;;;;9.55;3.10;;;;;;;15.93;60.85;101058.84;3010251;77;21011;-88
2022/05/19 04:36:28;;;;;;;5.58;3.62;;;;;;;17.40;56.31;101059.69;2987494;78;20991;-88
2022/05/19 04:40:29;;;;;;;5.75;2.70;;;;;;;18.64;52.77;101059.83;3015774;78;21002;-87
2022/05/19 04:44:30;;;;;;;6.03;3.22;;;;;;;19.58;50.21;101059.52;3017084;78;20967;-88
2022/05/19 04:48:31;;;;;;;8.58;3.02;;;;;;;20.37;48.21;101066.62;3016038;78;21021;-88
2022/05/19 04:52:33;;;;;;;4.08;2.62;;;;;;;20.77;46.04;101067.20;2993387;78;20979;-88
2022/05/19 04:56:34;;;;;;;4.90;2.90;;;;;;;20.78;46.53;101068.88;2985054;78;21045;-88
2022/05/19 05:00:36;;;;;;;4.15;1.72;;;;;;;20.89;47.22;101065.84;3010971;78;21064;-88
2022/05/19 05:04:38;;;;;;;7.58;3.22;;;;;;;21.08;46.62;101073.20;3016297;78;20998;-88
2022/05/19 05:08:39;;;;;;;2.22;1.70;;;;;;;21.09;45.78;101077.06;3011603;78;21074;-87
2022/05/19 05:12:40;;;;;;;4.58;2.67;;;;;;;20.95;46.03;101081.36;2979481;78;20979;-87
2022/05/19 05:16:42;;;;;;;5.17;2.60;;;;;;;21.10;46.13;101075.22;2986204;78;21069;-87
2022/05/19 05:20:44;;;;;;;4.20;3.08;;;;;;;21.13;46.24;101081.63;3002161;78;21561;-87
2022/05/19 05:24:45;;;;;;;3.75;2.12;;;;;;;21.08;47.18;101077.26;3016801;78;21035;-88
2022/05/19 05:28:46;;;;;;;1.98;1.82;;;;;;;20.82;48.57;101077.00;3016649;78;21616;-87
2022/05/19 05:32:47;;;;;;;12.75;2.65;;;;;;;20.84;48.12;101064.18;2997476;78;21096;-87
2022/05/19 05:36:48;;;;;;;5.85;3.00;;;;;;;20.87;47.29;101071.94;2995598;78;21052;-87
2022/05/19 05:40:50;;;;;;;5.20;1.95;;;;;;;21.22;48.44;101071.11;3017437;78;21033;-87
2022/05/19 05:44:51;;;;;;;4.67;2.30;;;;;;;21.73;47.67;101070.31;3016054;78;21085;-87
2022/05/19 05:48:52;;;;;;;17.12;13.98;;;;;;;22.34;46.97;101081.11;2873247;80;21021;-87
2022/05/19 05:52:53;;;;;;;5.12;4.58;;;;;;;22.83;45.63;101078.41;2904022;80;21054;-88
2022/05/19 05:56:55;;;;;;;13.05;4.90;;;;;;;23.10;45.12;101081.99;2952185;80;21034;-87
2022/05/19 06:00:56;;;;;;;7.37;5.62;;;;;;;23.10;45.45;101084.70;2894307;81;21530;-87
2022/05/19 06:04:58;;;;;;;7.47;6.70;;;;;;;23.16;45.73;101083.11;2899086;81;21050;-87
2022/05/19 06:08:59;;;;;;;9.68;7.33;;;;;;;23.41;45.09;101082.30;2900517;80;21559;-87
2022/05/19 06:13:00;;;;;;;5.58;2.35;;;;;;;23.61;45.41;101076.23;2888480;81;21050;-88
2022/05/19 06:17:02;;;;;;;2.85;1.70;;;;;;;23.71;45.20;101075.91;2885764;81;21002;-87
2022/05/19 06:21:05;;;;;;;2.00;1.80;;;;;;;23.80;44.96;101076.09;2904121;81;21069;-87
2022/05/19 06:25:08;;;;;;;4.28;1.98;;;;;;;23.87;44.45;101081.59;2929179;80;21031;-87
2022/05/19 06:29:10;;;;;;;6.90;2.92;;;;;;;24.01;45.20;101086.62;2919243;80;20955;-87
2022/05/19 06:33:17;;;;;;;6.50;5.90;;;;;;;23.91;45.66;101082.88;2912444;80;21054;-87
2022/05/19 06:37:18;;;;;;;7.72;4.40;;;;;;;24.31;44.79;101086.48;2848844;82;21028;-87
2022/05/19 06:45:40;;;;;;;4.50;0.93;;;;;;;24.30;45.06;101082.91;2897110;81;21019;-88
2022/05/19 06:49:51;;;;;;;24.77;5.00;;;;;;;24.35;44.77;101079.61;2836770;83;21063;-88
2022/05/19 06:53:53;;;;;;;1.47;1.20;;;;;;;24.55;45.29;101078.91;2913904;81;21109;-88
2022/05/19 06:57:54;;;;;;;1.75;1.55;;;;;;;24.75;44.89;101081.73;2830531;82;21344;-86
2022/05/19 07:01:56;;;;;;;3.42;1.47;;;;;;;25.27;43.87;101071.84;2883310;81;21031;-87
2022/05/19 07:05:57;;;;;;;3.98;1.17;;;;;;;25.69;44.81;101073.95;2807567;83;21079;-87
2022/05/19 07:09:58;;;;;;;2.25;0.85;;;;;;;25.92;42.30;101060.44;2867749;80;21015;-90
2022/05/19 07:14:04;;;;;;;3.20;1.00;;;;;;;26.08;41.63;101062.75;2780554;84;21059;-87
2022/05/19 07:18:08;;;;;;;2.80;1.60;;;;;;;26.17;41.45;101063.95;2923799;81;21061;-87
2022/05/19 07:22:19;;;;;;;1.35;0.78;;;;;;;26.31;40.86;101073.77;2855647;83;21023;-87
2022/05/19 07:26:20;;;;;;;4.00;1.30;;;;;;;26.40;40.72;101072.20;2911537;81;21078;-86
2022/05/19 07:30:22;;;;;;;1.75;0.90;;;;;;;26.60;40.32;101068.91;2809728;81;21596;-86
2022/05/19 07:34:23;;;;;;;3.92;1.77;;;;;;;26.72;41.28;101065.50;2928350;80;20999;-88
2022/05/19 07:38:25;;;;;;;3.47;1.00;;;;;;;26.75;40.59;101066.45;2890621;80;21000;-89
2022/05/19 07:42:26;;;;;;;6.62;1.75;;;;;;;26.90;41.04;101068.95;2899469;80;21014;-88
2022/05/19 07:46:28;;;;;;;3.80;1.05;;;;;;;26.90;40.22;101065.67;2911539;80;21023;-85
2022/05/19 07:50:31;;;;;;;1.87;0.85;;;;;;;26.98;40.85;101063.23;2902702;80;29018;-86
2022/05/19 07:54:33;;;;;;;1.77;1.07;;;;;;;27.14;40.68;101055.09;2869159;81;21058;-83
2022/05/19 07:58:35;;;;;;;2.80;1.05;;;;;;;27.26;41.04;101064.80;2918292;80;21486;-86
2022/05/19 08:02:36;;;;;;;1.77;0.62;;;;;;;27.45;39.45;101050.70;2905454;80;21019;-87
2022/05/19 08:06:39;;;;;;;2.67;1.25;;;;;;;27.74;40.14;101048.95;2886149;80;21058;-86
2022/05/19 08:10:40;;;;;;;1.10;0.80;;;;;;;27.90;39.16;101045.67;2923337;80;21034;-87
2022/05/19 08:18:45;;;;;;;2.98;0.75;;;;;;;28.03;37.62;101041.16;2887716;80;21034;-87
2022/05/19 08:22:46;;;;;;;1.45;0.82;;;;;;;28.04;38.13;101043.66;2901218;80;20980;-87
2022/05/19 08:26:48;;;;;;;3.33;1.12;;;;;;;28.08;38.54;101034.48;2900515;80;21003;-86
2022/05/19 08:30:51;;;;;;;4.12;0.75;;;;;;;28.07;37.82;101035.00;2908807;80;21039;-87
2022/05/19 08:34:52;;;;;;;1.40;0.93;;;;;;;28.16;37.13;101037.49;2911932;80;21042;-86
2022/05/19 08:38:54;;;;;;;2.83;0.93;;;;;;;28.24;38.46;101024.06;2893696;80;21089;-84
2022/05/19 08:43:00;;;;;;;5.28;1.27;;;;;;;28.29;38.55;101031.87;2860859;81;20984;-88
2022/05/19 08:47:05;;;;;;;1.92;1.22;;;;;;;28.30;37.46;101026.73;2938972;80;21003;-86
2022/05/19 08:51:07;;;;;;;2.52;1.07;;;;;;;28.39;38.36;101030.52;2920741;78;20967;-86
2022/05/19 08:55:11;;;;;;;47.80;9.33;;;;;;;28.43;38.40;101027.63;2886649;81;20987;-87
2022/05/19 08:59:40;;;;;;;2.75;0.75;;;;;;;28.39;37.83;101014.11;2905847;81;20987;-87
2022/05/19 09:03:59;;;;;;;3.65;1.22;;;;;;;28.31;36.77;101017.98;2903730;81;21000;-87
2022/05/19 09:08:31;;;;;;;1.10;0.80;;;;;;;28.32;37.96;101015.03;2881112;80;21031;-87
2022/05/19 09:12:38;;;;;;;4.47;1.50;;;;;;;28.30;36.91;101016.30;2925420;79;21788;-87
2022/05/19 09:16:39;;;;;;;4.10;0.60;;;;;;;28.30;36.91;101016.30;2918914;81;21012;-87
2022/05/19 09:20:54;;;;;;;8.20;1.80;;;;;;;28.26;36.03;101004.97;2869059;80;21027;-86
2022/05/19 09:24:55;;;;;;;2.22;1.00;;;;;;;28.27;36.49;101005.27;2892424;81;20979;-87
2022/05/19 09:29:04;;;;;;;1.85;0.88;;;;;;;28.15;35.95;100997.50;2888769;80;21548;-87
2022/05/19 09:33:17;;;;;;;6.67;1.32;;;;;;;28.08;36.60;100992.92;2917325;80;21516;-87
2022/05/19 09:37:35;;;;;;;1.02;0.75;;;;;;;28.09;36.34;100989.13;2890206;81;21031;-86
2022/05/19 09:41:40;;;;;;;3.92;1.82;;;;;;;28.18;35.57;100980.67;2931553;80;21011;-86
2022/05/19 09:45:47;;;;;;;3.37;1.10;;;;;;;28.17;36.68;100985.84;2924072;80;21025;-89
2022/05/19 09:50:08;;;;;;;2.12;1.35;;;;;;;28.00;34.56;100976.81;2928284;80;21002;-87
2022/05/19 09:54:12;;;;;;;1.27;1.00;;;;;;;27.86;35.18;100968.44;2916246;80;21027;-86
2022/05/19 09:58:17;;;;;;;1.95;1.05;;;;;;;27.68;35.30;100965.96;2925515;80;21012;-86
2022/05/19 10:02:38;;;;;;;15.50;1.25;;;;;;;27.71;35.19;100965.54;2926080;80;21519;-85
2022/05/19 10:06:57;;;;;;;4.78;0.98;;;;;;;27.68;33.25;100970.06;2929622;80;21578;-86
2022/05/19 10:11:07;;;;;;;5.33;1.45;;;;;;;27.77;36.69;100963.78;2901892;80;20991;-86
2022/05/19 10:15:14;;;;;;;7.42;1.42;;;;;;;27.92;35.97;100966.19;2927845;80;20968;-86
2022/05/19 10:19:42;;;;;;;5.22;1.20;;;;;;;28.03;34.81;100958.59;2934027;80;21028;-86
2022/05/19 10:24:18;;;;;;;4.95;1.17;;;;;;;27.94;33.89;100951.77;2929901;80;21003;-87
2022/05/19 10:33:02;;;;;;;1.80;1.15;;;;;;;28.08;32.42;100940.14;2903543;81;20127;-87
2022/05/19 10:37:18;;;;;;;14.23;3.83;;;;;;;28.04;34.86;100928.81;2936406;80;21078;-87
2022/05/19 10:41:43;;;;;;;4.25;1.10;;;;;;;28.14;35.95;100922.00;2915899;80;21051;-87
2022/05/19 10:45:49;;;;;;;6.97;1.23;;;;;;;28.13;35.71;100924.44;2903183;79;21038;-86
2022/05/19 10:50:08;;;;;;;2.15;0.93;;;;;;;28.16;35.40;100911.16;2910955;80;21016;-87
2022/05/19 10:54:41;;;;;;;7.33;1.27;;;;;;;28.16;33.27;100902.13;2874339;81;20979;-86
2022/05/19 10:59:11;;;;;;;29.92;6.80;;;;;;;28.07;31.73;100881.06;2920150;80;20999;-86
2022/05/19 11:03:30;;;;;;;4.47;1.27;;;;;;;28.07;31.73;100881.06;2889982;80;20986;-86
2022/05/19 11:08:00;;;;;;;2.02;0.98;;;;;;;28.14;33.88;100879.06;2890415;81;21011;-87
2022/05/19 11:12:28;;;;;;;64.85;11.75;;;;;;;28.35;34.89;100878.31;2911020;81;21083;-86
2022/05/19 11:16:59;;;;;;;4.15;1.15;;;;;;;28.55;34.81;100860.28;2708333;86;21058;-86
2022/05/19 11:21:09;;;;;;;4.60;0.75;;;;;;;28.55;34.81;100860.28;2816945;81;21067;-87
2022/05/19 11:29:52;;;;;;;13.18;1.77;;;;;;;28.71;33.31;100851.11;2810560;82;21092;-86
2022/05/19 11:33:56;;;;;;;1.55;0.75;;;;;;;28.81;33.76;100834.16;2812033;82;21017;-84
2022/05/19 11:38:27;;;;;;;8.00;1.17;;;;;;;28.98;32.28;100837.03;2795032;83;21068;-86
2022/05/19 11:42:42;;;;;;;2.45;0.72;;;;;;;28.98;32.28;100837.03;2807623;83;21064;-86
2022/05/19 11:47:04;;;;;;;3.05;1.65;;;;;;;29.03;30.92;100838.52;2803767;83;21032;-86
2022/05/19 11:55:52;;;;;;;2.15;0.60;;;;;;;29.07;33.00;100832.86;2993412;77;21069;-86
2022/05/19 11:59:57;;;;;;;3.30;1.27;;;;;;;29.14;30.09;100821.28;2995739;78;21120;-86
2022/05/19 12:04:21;;;;;;;8.05;1.82;;;;;;;29.34;34.10;100818.16;2987581;78;21537;-86
2022/05/19 12:08:46;;;;;;;3.77;0.95;;;;;;;29.44;31.33;100809.93;3005967;76;20992;-85
2022/05/19 12:12:59;;;;;;;4.35;0.95;;;;;;;29.18;29.40;100803.29;3014560;77;21010;-85
2022/05/19 12:17:09;;;;;;;4.83;1.20;;;;;;;29.04;29.05;100795.84;3006767;77;21053;-86
2022/05/19 12:21:25;;;;;;;1.20;0.90;;;;;;;29.00;30.28;100787.82;3016523;78;21045;-86
2022/05/19 12:25:30;;;;;;;10.05;1.37;;;;;;;29.07;29.72;100784.94;3013781;78;21002;-86
2022/05/19 12:29:40;;;;;;;3.35;1.25;;;;;;;29.35;31.95;100781.48;3018558;77;21042;-86
2022/05/19 12:34:00;;;;;;;4.85;1.22;;;;;;;29.66;31.92;100767.64;3019055;77;20967;-87
2022/05/19 12:38:06;;;;;;;3.70;1.65;;;;;;;29.69;30.42;100764.44;3017981;77;21037;-87
2022/05/19 12:42:27;;;;;;;2.95;1.15;;;;;;;29.99;32.75;100757.88;3018152;77;21006;-87
2022/05/19 12:46:40;;;;;;;2.80;0.95;;;;;;;29.91;29.08;100753.62;2989959;78;20995;-87
2022/05/19 12:51:03;;;;;;;1.27;0.98;;;;;;;29.84;29.70;100760.32;3016187;77;21022;-86
2022/05/19 12:55:28;;;;;;;3.30;1.17;;;;;;;29.95;30.78;100760.83;2997335;77;21030;-86
2022/05/19 12:59:44;;;;;;;3.10;0.95;;;;;;;30.13;30.67;100745.29;3012661;77;21042;-89
2022/05/19 13:03:53;;;;;;;7.22;1.65;;;;;;;30.25;28.75;100743.30;3001818;77;21030;-89
2022/05/19 13:08:30;;;;;;;27.52;4.92;;;;;;;30.34;31.17;100746.47;2929654;79;21075;-91
2022/05/19 13:12:49;;;;;;;4.10;1.65;;;;;;;30.42;28.87;100737.85;2934973;80;21040;-91
2022/05/19 13:16:54;;;;;;;1.07;0.98;;;;;;;30.37;30.64;100739.67;2905139;79;21078;-91
2022/05/19 13:21:08;;;;;;;30.97;3.60;;;;;;;30.34;30.65;100724.52;2946653;79;21103;-89
2022/05/19 13:25:12;;;;;;;22.55;4.20;;;;;;;30.25;30.75;100721.35;2921001;80;21021;-90
2022/05/19 13:33:40;;;;;;;1.45;1.00;;;;;;;30.18;33.13;100711.09;2899661;80;21007;-89
2022/05/19 13:37:44;;;;;;;2.62;1.40;;;;;;;30.30;31.60;100705.00;2894919;80;21032;-90
2022/05/19 13:41:50;;;;;;;1.62;1.50;;;;;;;30.34;32.31;100695.72;2906668;80;21012;-89
2022/05/19 13:46:00;;;;;;;5.72;1.67;;;;;;;30.53;31.93;100694.95;3017356;77;21014;-88
2022/05/19 13:50:07;;;;;;;2.45;1.25;;;;;;;30.51;30.99;100691.63;3032142;78;21034;-90
2022/05/19 13:54:12;;;;;;;3.40;1.55;;;;;;;30.41;30.64;100689.55;3023773;77;21010;-88
2022/05/19 13:58:18;;;;;;;2.98;1.02;;;;;;;30.38;31.37;100682.34;3001418;78;21435;-88
2022/05/19 14:02:36;;;;;;;2.45;1.05;;;;;;;30.41;31.97;100673.61;2962949;77;21013;-88
2022/05/19 14:06:39;;;;;;;1.98;1.12;;;;;;;30.53;32.72;100672.98;2985331;77;21018;-90
2022/05/19 14:10:46;;;;;;;1.57;0.93;;;;;;;30.68;32.54;100670.23;3022898;77;21021;-88
2022/05/19 14:14:51;;;;;;;1.57;1.00;;;;;;;30.64;31.60;100666.59;3003692;78;21010;-88
2022/05/19 14:19:04;;;;;;;2.65;1.50;;;;;;;30.72;32.89;100665.89;3002251;77;21589;-89
2022/05/19 14:23:51;;;;;;;52.40;10.28;;;;;;;30.82;33.26;100656.41;3023552;78;21017;-88
2022/05/19 14:28:00;;;;;;;2.95;1.27;;;;;;;30.64;32.09;100655.61;3023674;78;21025;-88
2022/05/19 14:32:22;;;;;;;3.52;1.12;;;;;;;30.57;33.40;100652.19;3024033;77;21003;-88
2022/05/19 14:36:29;;;;;;;1.95;1.32;;;;;;;30.66;34.71;100645.76;3021664;77;21022;-89
2022/05/19 14:44:58;;;;;;;5.37;1.95;;;;;;;30.66;33.66;100633.94;3012124;78;21002;-88
2022/05/19 14:49:03;;;;;;;3.30;1.35;;;;;;;30.56;33.94;100626.35;2999371;77;21044;-88
2022/05/19 14:53:09;;;;;;;3.00;1.35;;;;;;;30.66;34.03;100622.95;2987977;78;21038;-89
2022/05/19 14:57:19;;;;;;;5.12;1.42;;;;;;;30.66;33.90;100617.47;3004639;77;21667;-89
2022/05/19 15:01:21;;;;;;;2.15;1.10;;;;;;;30.69;34.67;100617.80;2990236;77;21058;-89
2022/05/19 15:05:24;;;;;;;2.05;1.20;;;;;;;30.75;35.95;100607.73;3015179;77;21002;-88
2022/05/19 15:09:25;;;;;;;3.25;1.72;;;;;;;30.77;36.12;100611.89;3018168;77;21029;-88
2022/05/19 15:13:27;;;;;;;4.12;1.80;;;;;;;30.76;36.19;100602.00;2967473;77;20995;-88
2022/05/19 15:17:28;;;;;;;1.67;0.85;;;;;;;30.78;35.02;100597.08;2976732;77;20952;-88
2022/05/19 15:21:30;;;;;;;2.15;1.35;;;;;;;30.75;32.91;100591.26;3002744;78;20998;-89
2022/05/19 15:25:32;;;;;;;3.22;1.20;;;;;;;30.75;34.39;100588.52;3018540;77;21057;-86
2022/05/19 15:29:34;;;;;;;1.95;1.25;;;;;;;30.66;34.32;100584.52;2967840;78;21042;-88
2022/05/19 15:33:36;;;;;;;3.42;1.72;;;;;;;30.67;35.21;100574.68;3006992;78;21025;-89
2022/05/19 15:37:38;;;;;;;1.77;1.20;;;;;;;30.69;35.56;100575.25;3014873;78;20993;-88
2022/05/19 15:41:40;;;;;;;4.67;1.50;;;;;;;30.53;34.97;100564.58;2993442;78;20967;-88
2022/05/19 15:45:41;;;;;;;1.80;0.98;;;;;;;30.30;36.12;100558.23;2997396;78;21017;-88
2022/05/19 15:49:46;;;;;;;2.15;1.95;;;;;;;30.15;35.69;100560.73;3011195;78;20985;-89
2022/05/19 15:53:47;;;;;;;6.05;1.65;;;;;;;30.09;36.78;100559.00;3019162;78;20958;-89
2022/05/19 15:57:49;;;;;;;5.83;1.35;;;;;;;30.05;35.45;100555.36;3019496;78;21006;-89
2022/05/19 16:01:51;;;;;;;2.87;1.40;;;;;;;30.01;36.67;100554.73;3014188;78;21017;-89
2022/05/19 16:05:52;;;;;;;5.22;1.30;;;;;;;30.01;36.37;100558.28;3013747;78;21017;-89
2022/05/19 16:09:53;;;;;;;17.92;2.47;;;;;;;29.92;36.55;100555.68;2998362;78;21521;-88
2022/05/19 16:13:55;;;;;;;31.62;5.10;;;;;;;29.84;36.50;100557.45;3019251;77;21085;-89
2022/05/19 16:17:56;;;;;;;3.62;1.30;;;;;;;29.70;36.67;100550.94;3010415;77;21026;-89
2022/05/19 16:22:04;;;;;;;2.70;1.15;;;;;;;29.56;37.37;100545.47;2989384;78;21090;-86
2022/05/19 16:26:01;;;;;;;2.87;1.17;;;;;;;29.47;36.37;100541.74;2991071;78;21029;-87
2022/05/19 16:30:05;;;;;;;4.40;1.40;;;;;;;29.34;37.21;100543.41;2996489;78;21023;-86
2022/05/19 16:34:07;;;;;;;2.90;1.40;;;;;;;29.13;37.09;100537.53;3000204;77;20987;-86
2022/05/19 16:38:12;;;;;;;3.52;1.02;;;;;;;28.92;37.50;100534.92;3021676;78;21009;-86
2022/05/19 16:42:13;;;;;;;4.05;1.35;;;;;;;28.69;37.18;100527.03;3003911;77;21023;-86
2022/05/19 16:46:18;;;;;;;3.15;1.67;;;;;;;28.48;38.10;100536.17;2990781;77;21318;-86
2022/05/19 16:50:21;;;;;;;7.30;2.50;;;;;;;28.20;38.40;100521.86;3002253;77;20935;-86
2022/05/19 16:58:44;;;;;;;7.97;2.33;;;;;;;28.00;39.03;100527.63;3029151;77;20991;-86
2022/05/19 17:02:46;;;;;;;26.80;5.60;;;;;;;27.84;39.53;100530.53;3028995;77;20958;-85
2022/05/19 17:06:47;;;;;;;7.37;2.22;;;;;;;27.69;39.32;100529.06;3028093;77;21010;-86
2022/05/19 17:10:50;;;;;;;6.65;2.25;;;;;;;27.55;40.24;100531.73;3024823;77;20995;-86
2022/05/19 17:14:52;;;;;;;26.55;6.00;;;;;;;27.42;40.12;100529.45;3010666;77;20991;-86
2022/05/19 17:18:53;;;;;;;81.15;14.15;;;;;;;27.33;40.17;100525.39;3029473;77;20985;-85
2022/05/19 17:22:55;;;;;;;3.35;1.30;;;;;;;27.18;41.22;100518.45;3045083;77;21010;-86
2022/05/19 17:26:56;;;;;;;6.62;1.55;;;;;;;26.94;42.40;100517.49;3044063;77;21014;-86
2022/05/19 17:30:59;;;;;;;5.03;1.75;;;;;;;26.65;43.16;100515.28;3027466;77;21014;-87
2022/05/19 17:35:00;;;;;;;4.03;1.62;;;;;;;26.65;43.55;100513.92;3020913;77;20999;-87
2022/05/19 17:39:02;;;;;;;6.37;2.22;;;;;;;26.71;43.21;100520.36;3015474;77;21422;-87
2022/05/19 17:43:04;;;;;;;4.10;1.98;;;;;;;26.55;43.11;100514.14;2906246;77;21406;-87
2022/05/19 17:47:06;;;;;;;4.92;1.70;;;;;;;26.33;43.75;100510.50;2974908;78;21137;-86
2022/05/19 17:51:09;;;;;;;5.15;2.15;;;;;;;26.02;44.61;100505.40;3002441;78;20944;-86
2022/05/19 17:55:10;;;;;;;5.62;2.20;;;;;;;25.67;45.28;100517.63;3000285;77;21118;-86
2022/05/19 17:59:12;;;;;;;5.28;2.58;;;;;;;25.30;46.25;100506.53;3007115;77;20983;-87
2022/05/19 18:03:14;;;;;;;11.20;2.70;;;;;;;25.01;46.65;100505.52;3025883;77;21011;-86
2022/05/19 18:07:15;;;;;;;7.87;2.77;;;;;;;24.77;47.39;100508.47;3005453;77;20975;-87
2022/05/19 18:11:19;;;;;;;11.35;3.17;;;;;;;24.45;48.19;100511.03;3021342;77;20961;-87
2022/05/19 18:19:40;;;;;;;10.58;5.47;;;;;;;23.92;48.42;100512.72;3025116;77;21498;-86
2022/05/19 18:23:41;;;;;;;8.18;3.87;;;;;;;23.73;48.92;100513.05;3007528;77;21005;-86
2022/05/19 18:27:43;;;;;;;9.55;4.30;;;;;;;23.54;49.08;100520.95;3010312;77;21007;-86
2022/05/19 18:31:44;;;;;;;11.03;5.40;;;;;;;23.36;49.35;100516.09;3003984;77;21051;-86
2022/05/19 18:35:46;;;;;;;6.80;4.35;;;;;;;23.13;49.98;100517.25;3012780;77;21050;-87
2022/05/19 18:39:47;;;;;;;8.25;4.45;;;;;;;22.89;50.31;100522.17;3028464;77;21034;-86
2022/05/19 18:48:09;;;;;;;4.25;2.20;;;;;;;22.56;51.21;100517.41;3019472;77;21009;-87
2022/05/19 18:52:11;;;;;;;4.28;2.75;;;;;;;22.39;51.15;100526.36;3015962;77;21014;-86
2022/05/19 18:56:14;;;;;;;3.72;2.85;;;;;;;22.27;51.45;100535.55;3000482;77;20990;-86
2022/05/19 19:00:16;;;;;;;10.80;4.08;;;;;;;22.15;51.93;100543.89;3024146;77;20974;-86
2022/05/19 19:04:19;;;;;;;8.23;4.67;;;;;;;22.02;52.23;100548.18;2988076;78;21000;-86
2022/05/19 19:08:21;;;;;;;6.17;4.70;;;;;;;21.93;52.09;100552.89;3012638;77;20970;-87
2022/05/19 19:12:22;;;;;;;11.57;7.83;;;;;;;21.85;52.47;100555.72;3015445;78;21018;-86
2022/05/19 19:16:26;;;;;;;15.85;12.13;;;;;;;21.75;52.59;100546.56;3005607;77;20990;-87
2022/05/19 19:20:28;;;;;;;8.08;6.15;;;;;;;21.69;52.69;100545.47;3015396;78;21022;-86
2022/05/19 19:24:35;;;;;;;11.90;5.95;;;;;;;21.62;52.86;100549.95;2968185;78;21018;-88
2022/05/19 19:28:33;;;;;;;10.28;5.92;;;;;;;21.57;53.13;100546.14;2992224;77;21009;-88
2022/05/19 19:32:36;;;;;;;8.00;5.55;;;;;;;21.52;53.07;100539.44;3023298;78;21559;-88
2022/05/19 19:36:37;;;;;;;7.33;4.10;;;;;;;21.47;53.36;100532.92;3026055;78;20991;-88
2022/05/19 19:40:39;;;;;;;5.62;4.05;;;;;;;21.42;53.47;100528.11;3010896;78;21027;-88
2022/05/19 19:44:40;;;;;;;9.73;4.12;;;;;;;21.34;53.52;100525.00;3012722;78;21609;-88
2022/05/19 19:48:42;;;;;;;8.20;3.87;;;;;;;21.30;53.69;100520.16;3006474;77;20995;-88
2022/05/19 19:52:43;;;;;;;4.83;3.33;;;;;;;21.29;53.60;100519.84;2996679;77;21517;-88